createdAt,value
2022-10-04T00:02:20.674Z,100830.16
2022-10-04T00:05:24.760Z,100829.50
2022-10-04T00:08:26.606Z,100835.44
2022-10-04T00:11:31.168Z,100839.16
2022-10-04T00:14:35.747Z,100840.94
2022-10-04T00:17:38.057Z,100845.41
2022-10-04T00:20:53.384Z,100857.50
2022-10-04T00:24:08.959Z,100851.78
2022-10-04T00:27:19.045Z,100841.47
2022-10-04T00:30:23.248Z,100838.62
2022-10-04T00:33:42.289Z,100843.37
2022-10-04T00:36:45.842Z,100844.75
2022-10-04T00:39:57.938Z,100831.69
2022-10-04T00:43:06.034Z,100834.34
2022-10-04T00:46:13.491Z,100836.25
2022-10-04T00:49:17.505Z,100830.53
2022-10-04T00:52:22.901Z,100832.00
2022-10-04T00:55:25.368Z,100823.22
2022-10-04T00:58:31.237Z,100823.84
2022-10-04T01:01:35.780Z,100821.00
2022-10-04T01:04:43.552Z,100818.34
2022-10-04T01:07:47.382Z,100818.34
2022-10-04T01:10:52.705Z,100827.25
2022-10-04T01:13:56.161Z,100817.81
2022-10-04T01:16:58.058Z,100810.06
2022-10-04T01:20:00.269Z,100811.53
2022-10-04T01:23:03.332Z,100799.69
2022-10-04T01:26:06.287Z,100797.09
2022-10-04T01:29:14.476Z,100805.03
2022-10-04T01:32:17.239Z,100798.63
2022-10-04T01:35:20.346Z,100794.47
2022-10-04T01:38:22.589Z,100796.31
2022-10-04T01:41:29.265Z,100795.06
2022-10-04T01:44:31.444Z,100806.81
2022-10-04T01:47:37.548Z,100790.03
2022-10-04T01:50:43.139Z,100796.72
2022-10-04T01:53:49.585Z,100792.91
2022-10-04T01:57:07.161Z,100789.50
2022-10-04T02:00:10.308Z,100792.72
2022-10-04T02:03:26.504Z,100795.06
2022-10-04T02:06:30.107Z,100790.81
2022-10-04T02:09:34.115Z,100797.25
2022-10-04T02:12:38.647Z,100798.81
2022-10-04T02:15:40.921Z,100798.91
2022-10-04T02:18:44.120Z,100805.91
2022-10-04T02:21:47.161Z,100801.91
2022-10-04T02:24:49.632Z,100804.88
2022-10-04T02:27:53.117Z,100810.94
2022-10-04T02:31:13.742Z,100801.91
2022-10-04T02:34:17.770Z,100802.03
2022-10-04T02:37:22.418Z,100812.41
2022-10-04T02:40:28.937Z,100811.88
2022-10-04T02:43:43.757Z,100805.94
2022-10-04T02:47:04.584Z,100811.78
2022-10-04T02:50:09.856Z,100805.50
2022-10-04T02:53:18.097Z,100809.34
2022-10-04T02:56:22.253Z,100805.63
2022-10-04T02:59:24.481Z,100797.69
2022-10-04T03:02:30.107Z,100801.16
2022-10-04T03:05:32.793Z,100801.84
2022-10-04T03:08:36.615Z,100798.34
2022-10-04T03:11:40.537Z,100797.47
2022-10-04T03:14:43.677Z,100799.47
2022-10-04T03:17:46.295Z,100802.75
2022-10-04T03:20:48.450Z,100806.41
2022-10-04T03:23:52.284Z,100797.97
2022-10-04T03:26:58.506Z,100794.06
2022-10-04T03:30:01.916Z,100795.88
2022-10-04T03:33:05.196Z,100795.88
2022-10-04T03:36:07.470Z,100806.69
2022-10-04T03:39:11.090Z,100805.72
2022-10-04T03:42:18.484Z,100802.87
2022-10-04T03:45:21.547Z,100799.47
2022-10-04T03:48:38.110Z,100803.19
2022-10-04T03:51:44.024Z,100799.28
2022-10-04T03:54:47.348Z,100801.47
2022-10-04T03:57:49.301Z,100805.41
2022-10-04T04:01:14.823Z,100800.53
2022-10-04T04:04:37.291Z,100800.41
2022-10-04T04:07:41.927Z,100796.00
2022-10-04T04:10:50.074Z,100782.19
2022-10-04T04:13:56.911Z,100790.13
2022-10-04T04:17:17.690Z,100790.03
2022-10-04T04:20:28.611Z,100790.88
2022-10-04T04:23:33.093Z,100795.00
2022-10-04T04:26:43.888Z,100794.59
2022-10-04T04:29:50.032Z,100802.56
2022-10-04T04:32:54.565Z,100816.78
2022-10-04T04:36:03.630Z,100811.03
2022-10-04T04:39:28.292Z,100815.69
2022-10-04T04:42:32.766Z,100819.00
2022-10-04T04:45:36.560Z,100818.16
2022-10-04T04:48:39.032Z,100809.44
2022-10-04T04:51:41.794Z,100804.16
2022-10-04T04:54:47.041Z,100809.44
2022-10-04T04:57:50.115Z,100813.06
2022-10-04T05:00:58.923Z,100819.41
2022-10-04T05:04:01.091Z,100822.25
2022-10-04T05:07:05.186Z,100826.16
2022-10-04T05:10:21.208Z,100836.97
2022-10-04T05:13:26.815Z,100828.09
2022-10-04T05:16:41.539Z,100827.28
2022-10-04T05:19:43.798Z,100832.75
2022-10-04T05:22:47.545Z,100840.28
2022-10-04T05:25:50.533Z,100844.41
2022-10-04T05:28:52.737Z,100854.91
2022-10-04T05:32:07.191Z,100849.16
2022-10-04T05:35:20.045Z,100856.81
2022-10-04T05:38:41.157Z,100855.09
2022-10-04T05:41:52.550Z,100862.72
2022-10-04T05:44:56.609Z,100867.69
2022-10-04T05:48:00.591Z,100872.19
2022-10-04T05:51:13.016Z,100879.78
2022-10-04T05:54:18.674Z,100885.72
2022-10-04T05:57:31.256Z,100886.22
2022-10-04T06:00:46.303Z,100893.38
2022-10-04T06:04:04.104Z,100884.06
2022-10-04T06:07:11.909Z,100893.56
2022-10-04T06:10:33.026Z,100890.53
2022-10-04T06:13:51.299Z,100892.81
2022-10-04T06:16:53.487Z,100900.66
2022-10-04T06:19:55.431Z,100901.19
2022-10-04T06:23:01.394Z,100908.37
2022-10-04T06:26:10.358Z,100899.06
2022-10-04T06:29:18.139Z,100914.28
2022-10-04T06:32:38.594Z,100912.81
2022-10-04T06:35:57.394Z,100911.59
2022-10-04T06:39:18.070Z,100920.56
2022-10-04T06:42:38.052Z,100913.66
2022-10-04T06:45:39.961Z,100920.88
2022-10-04T06:49:01.145Z,100913.72
2022-10-04T06:52:09.322Z,100899.50
2022-10-04T06:55:21.534Z,100902.41
2022-10-04T06:58:41.739Z,100911.00
2022-10-04T07:01:58.887Z,100910.28
2022-10-04T07:05:30.155Z,100914.87
2022-10-04T07:08:39.548Z,100912.06
2022-10-04T07:11:49.563Z,100920.28
2022-10-04T07:14:54.841Z,100927.31
2022-10-04T07:17:58.706Z,100932.94
2022-10-04T07:21:08.378Z,100937.88
2022-10-04T07:24:12.437Z,100948.16
2022-10-04T07:27:21.388Z,100947.22
2022-10-04T07:30:23.343Z,100947.03
2022-10-04T07:33:27.964Z,100942.44
2022-10-04T07:36:39.068Z,100943.50
2022-10-04T07:39:44.514Z,100950.97
2022-10-04T07:42:54.789Z,100954.38
2022-10-04T07:46:06.510Z,100954.06
2022-10-04T07:49:15.996Z,100951.34
2022-10-04T07:52:24.253Z,100939.47
2022-10-04T07:55:26.119Z,100952.97
2022-10-04T07:58:41.072Z,100949.59
2022-10-04T08:02:01.293Z,100954.25
2022-10-04T08:05:23.366Z,100950.84
2022-10-04T08:08:40.766Z,100950.09
2022-10-04T08:11:46.310Z,100958.69
2022-10-04T08:15:07.276Z,100960.88
2022-10-04T08:18:09.915Z,100953.53
2022-10-04T08:21:17.971Z,100964.19
2022-10-04T08:24:27.146Z,100971.81
2022-10-04T08:27:28.998Z,100978.34
2022-10-04T08:30:39.285Z,100987.62
2022-10-04T08:33:59.265Z,100999.00
2022-10-04T08:37:03.275Z,100996.78
2022-10-04T08:40:24.049Z,100987.69
2022-10-04T08:43:37.474Z,100989.06
2022-10-04T08:46:53.158Z,100994.66
2022-10-04T08:50:24.850Z,100993.75
2022-10-04T08:53:29.621Z,100994.34
2022-10-04T08:56:51.553Z,101007.31
2022-10-04T09:00:13.733Z,101004.91
2022-10-04T09:03:22.935Z,100999.78
2022-10-04T09:06:40.214Z,100990.94
2022-10-04T09:09:44.501Z,100988.78
2022-10-04T09:12:54.902Z,100990.53
2022-10-04T09:16:09.149Z,100986.59
2022-10-04T09:19:39.577Z,100960.03
2022-10-04T09:23:15.999Z,100961.88
2022-10-04T09:26:28.980Z,100982.87
2022-10-04T09:29:37.422Z,100998.97
2022-10-04T09:32:42.324Z,100987.44
2022-10-04T09:35:50.544Z,100990.00
2022-10-04T09:39:29.351Z,101000.97
2022-10-04T09:42:42.298Z,101005.22
2022-10-04T09:46:03.256Z,101009.44
2022-10-04T09:49:13.564Z,101010.47
2022-10-04T09:52:34.422Z,101011.91
2022-10-04T09:55:42.688Z,101018.25
2022-10-04T09:58:48.961Z,101016.56
2022-10-04T10:02:00.487Z,101021.91
2022-10-04T10:05:18.639Z,101038.41
2022-10-04T10:08:27.993Z,101033.37
2022-10-04T10:12:03.046Z,101029.50
2022-10-04T10:15:19.926Z,101032.84
2022-10-04T10:18:31.323Z,101033.56
2022-10-04T10:21:39.673Z,101043.47
2022-10-04T10:24:57.476Z,101034.19
2022-10-04T10:28:07.659Z,101037.28
2022-10-04T10:31:21.774Z,101041.69
2022-10-04T10:34:59.383Z,101036.00
2022-10-04T10:38:32.174Z,101032.78
2022-10-04T10:41:52.902Z,101028.75
2022-10-04T10:45:09.226Z,101031.00
2022-10-04T10:48:11.073Z,101022.88
2022-10-04T10:51:18.879Z,101027.66
2022-10-04T10:54:40.271Z,101030.41
2022-10-04T10:57:48.609Z,101027.81
2022-10-04T11:01:10.670Z,101023.53
2022-10-04T11:04:31.658Z,101022.88
2022-10-04T11:07:51.689Z,101024.28
2022-10-04T11:11:03.580Z,101024.53
2022-10-04T11:14:11.755Z,101021.81
2022-10-04T11:17:27.600Z,101025.31
2022-10-04T11:20:38.760Z,101026.53
2022-10-04T11:23:59.894Z,101016.06
2022-10-04T11:27:28.485Z,101024.41
2022-10-04T11:30:57.531Z,101020.31
2022-10-04T11:33:59.552Z,101024.31
2022-10-04T11:37:21.827Z,101026.91
2022-10-04T11:40:26.995Z,101028.19
2022-10-04T11:43:54.295Z,101027.56
2022-10-04T11:47:07.918Z,101032.38
2022-10-04T11:50:10.311Z,101027.28
2022-10-04T11:53:19.955Z,101019.97
2022-10-04T11:56:29.743Z,101019.84
2022-10-04T11:59:39.376Z,101013.59
2022-10-04T12:02:50.245Z,101026.03
2022-10-04T12:06:03.503Z,101019.44
2022-10-04T12:09:11.764Z,101029.03
2022-10-04T12:12:38.925Z,101020.66
2022-10-04T12:15:52.625Z,101012.38
2022-10-04T12:19:07.172Z,101018.31
2022-10-04T12:22:28.101Z,101019.75
2022-10-04T12:25:46.259Z,101022.16
2022-10-04T12:29:11.329Z,101025.81
2022-10-04T12:32:19.557Z,101026.94
2022-10-04T12:35:40.262Z,101012.22
2022-10-04T12:39:15.085Z,101020.66
2022-10-04T12:42:37.296Z,101025.94
2022-10-04T12:45:46.326Z,101023.66
2022-10-04T12:48:57.328Z,101028.03
2022-10-04T12:52:05.726Z,101036.28
2022-10-04T12:55:19.808Z,101031.69
2022-10-04T12:58:30.338Z,101029.69
2022-10-04T13:01:42.513Z,101021.78
2022-10-04T13:04:51.917Z,101032.91
2022-10-04T13:08:03.848Z,101033.31
2022-10-04T13:11:06.278Z,101024.91
2022-10-04T13:14:16.300Z,101017.94
2022-10-04T13:17:36.062Z,101014.62
2022-10-04T13:20:57.615Z,101012.94
2022-10-04T13:24:04.161Z,101020.81
2022-10-04T13:27:15.039Z,101013.34
2022-10-04T13:30:23.402Z,101010.28
2022-10-04T13:33:40.267Z,101014.00
2022-10-04T13:36:48.667Z,101028.44
2022-10-04T13:39:50.525Z,101023.19
2022-10-04T13:42:59.027Z,101030.56
2022-10-04T13:46:07.822Z,101023.34
2022-10-04T13:49:28.528Z,101035.19
2022-10-04T13:53:07.962Z,101035.47
2022-10-04T13:56:42.712Z,101029.56
2022-10-04T13:59:44.657Z,101021.72
2022-10-04T14:02:55.904Z,101042.97
2022-10-04T14:06:17.181Z,101044.47
2022-10-04T14:09:22.899Z,101048.72
2022-10-04T14:12:28.271Z,101044.81
2022-10-04T14:15:33.315Z,101047.06
2022-10-04T14:18:50.093Z,101050.47
2022-10-04T14:22:11.772Z,101057.84
2022-10-04T14:25:34.339Z,101053.75
2022-10-04T14:28:38.136Z,101054.78
2022-10-04T14:31:55.178Z,101048.56
2022-10-04T14:34:58.159Z,101059.84
2022-10-04T14:38:23.184Z,101054.22
2022-10-04T14:41:39.079Z,101063.22
2022-10-04T14:45:01.610Z,101059.63
2022-10-04T14:48:24.374Z,101068.25
2022-10-04T14:51:30.021Z,101067.22
2022-10-04T14:54:52.462Z,101082.91
2022-10-04T14:57:54.712Z,101073.41
2022-10-04T15:01:17.572Z,101077.19
2022-10-04T15:04:40.136Z,101078.13
2022-10-04T15:07:46.842Z,101084.84
2022-10-04T15:10:51.934Z,101091.88
2022-10-04T15:13:55.845Z,101086.09
2022-10-04T15:16:59.987Z,101087.13
2022-10-04T15:20:10.759Z,101089.34
2022-10-04T15:23:13.395Z,101082.69
2022-10-04T15:26:18.282Z,101084.19
2022-10-04T15:29:25.291Z,101098.19
2022-10-04T15:32:45.604Z,101100.78
2022-10-04T15:35:54.199Z,101099.81
2022-10-04T15:39:03.993Z,101107.03
2022-10-04T15:42:06.313Z,101107.44
2022-10-04T15:45:17.132Z,101110.97
2022-10-04T15:48:34.068Z,101115.09
2022-10-04T15:51:54.644Z,101122.31
2022-10-04T15:55:02.975Z,101119.88
2022-10-04T15:58:09.432Z,101121.69
2022-10-04T16:01:21.030Z,101121.44
2022-10-04T16:04:42.831Z,101125.44
2022-10-04T16:07:54.188Z,101124.81
2022-10-04T16:11:06.972Z,101146.16
2022-10-04T16:14:15.674Z,101143.25
2022-10-04T16:17:53.601Z,101141.31
2022-10-04T16:21:12.739Z,101151.63
2022-10-04T16:24:18.141Z,101150.66
2022-10-04T16:27:26.306Z,101156.28
2022-10-04T16:30:29.110Z,101158.31
2022-10-04T16:33:43.106Z,101162.75
2022-10-04T16:36:59.001Z,101155.28
2022-10-04T16:40:02.774Z,101153.06
2022-10-04T16:43:25.965Z,101165.31
2022-10-04T16:46:36.957Z,101162.63
2022-10-04T16:50:08.997Z,101163.91
2022-10-04T16:53:26.323Z,101172.34
2022-10-04T16:56:31.723Z,101179.59
2022-10-04T16:59:36.836Z,101183.41
2022-10-04T17:02:56.592Z,101182.97
2022-10-04T17:06:11.744Z,101187.81
2022-10-04T17:09:36.662Z,101188.53
2022-10-04T17:12:57.499Z,101193.88
2022-10-04T17:16:02.928Z,101197.59
2022-10-04T17:19:39.491Z,101200.53
2022-10-04T17:22:47.008Z,101196.28
2022-10-04T17:26:07.584Z,101211.16
2022-10-04T17:29:26.846Z,101210.06
2022-10-04T17:32:31.566Z,101217.41
2022-10-04T17:35:52.763Z,101218.16
2022-10-04T17:39:17.949Z,101220.81
2022-10-04T17:42:23.332Z,101223.13
2022-10-04T17:45:25.203Z,101228.47
2022-10-04T17:48:47.445Z,101230.72
2022-10-04T17:52:09.848Z,101222.44
2022-10-04T17:55:17.359Z,101237.53
2022-10-04T17:58:23.222Z,101230.34
2022-10-04T18:01:28.867Z,101237.56
2022-10-04T18:04:34.315Z,101237.53
2022-10-04T18:07:43.995Z,101239.97
2022-10-04T18:10:50.237Z,101238.81
2022-10-04T18:13:59.390Z,101246.03
2022-10-04T18:17:25.056Z,101251.69
2022-10-04T18:20:30.764Z,101245.84
2022-10-04T18:23:39.322Z,101234.22
2022-10-04T18:26:56.643Z,101244.03
2022-10-04T18:30:01.822Z,101252.97
2022-10-04T18:33:13.502Z,101260.75
2022-10-04T18:36:31.072Z,101251.38
2022-10-04T18:39:44.003Z,101254.59
2022-10-04T18:42:52.219Z,101254.03
2022-10-04T18:46:00.364Z,101262.97
2022-10-04T18:49:21.046Z,101268.09
2022-10-04T18:52:29.171Z,101276.50
2022-10-04T18:55:46.716Z,101275.75
2022-10-04T18:59:15.637Z,101282.03
2022-10-04T19:02:34.777Z,101283.84
2022-10-04T19:05:36.952Z,101290.09
2022-10-04T19:08:55.809Z,101299.03
2022-10-04T19:12:04.964Z,101302.72
2022-10-04T19:15:13.201Z,101304.31
2022-10-04T19:18:33.546Z,101309.91
2022-10-04T19:21:38.609Z,101309.06
2022-10-04T19:24:43.385Z,101310.19
2022-10-04T19:27:48.670Z,101312.19
2022-10-04T19:31:05.827Z,101307.03
2022-10-04T19:34:11.883Z,101317.16
2022-10-04T19:37:30.915Z,101315.03
2022-10-04T19:40:44.274Z,101331.06
2022-10-04T19:43:58.700Z,101323.91
2022-10-04T19:47:19.721Z,101336.16
2022-10-04T19:50:24.888Z,101335.16
2022-10-04T19:53:35.056Z,101332.16
2022-10-04T19:56:43.009Z,101327.97
2022-10-04T19:59:48.351Z,101344.25
2022-10-04T20:02:50.377Z,101346.75
2022-10-04T20:05:54.256Z,101348.34
2022-10-04T20:09:02.799Z,101352.53
2022-10-04T20:12:05.498Z,101343.62
2022-10-04T20:15:16.706Z,101354.25
2022-10-04T20:18:34.536Z,101354.84
2022-10-04T20:21:36.548Z,101356.16
2022-10-04T20:24:41.717Z,101355.22
2022-10-04T20:27:46.710Z,101365.44
2022-10-04T20:30:51.399Z,101371.84
2022-10-04T20:33:53.367Z,101365.09
2022-10-04T20:36:55.609Z,101360.75
2022-10-04T20:39:57.478Z,101364.34
2022-10-04T20:43:24.350Z,101373.31
2022-10-04T20:46:27.293Z,101367.69
2022-10-04T20:49:29.554Z,101370.56
2022-10-04T20:52:33.228Z,101375.81
2022-10-04T20:55:36.662Z,101381.06
2022-10-04T20:58:40.404Z,101385.16
2022-10-04T21:01:45.971Z,101384.56
2022-10-04T21:04:51.982Z,101389.69
2022-10-04T21:08:32.817Z,101387.13
2022-10-04T21:11:44.461Z,101388.00
2022-10-04T21:15:01.067Z,101392.91
2022-10-04T21:18:04.312Z,101391.19
2022-10-04T21:21:07.676Z,101391.38
2022-10-04T21:24:28.803Z,101395.59
2022-10-04T21:27:38.502Z,101399.37
2022-10-04T21:30:40.442Z,101405.97
2022-10-04T21:33:43.120Z,101406.94
2022-10-04T21:36:45.236Z,101408.38
2022-10-04T21:39:47.923Z,101410.03
2022-10-04T21:42:49.883Z,101414.31
2022-10-04T21:45:52.176Z,101417.81
2022-10-04T21:48:54.100Z,101414.31
2022-10-04T21:51:56.315Z,101423.16
2022-10-04T21:54:58.280Z,101418.03
2022-10-04T21:58:00.501Z,101423.00
2022-10-04T22:01:02.470Z,101425.12
2022-10-04T22:04:04.842Z,101432.91
2022-10-04T22:07:06.752Z,101440.75
2022-10-04T22:10:09.058Z,101440.25
2022-10-04T22:13:11.063Z,101440.66
2022-10-04T22:16:13.412Z,101430.97
2022-10-04T22:19:15.352Z,101436.28
2022-10-04T22:22:17.571Z,101448.44
2022-10-04T22:25:20.872Z,101443.25
2022-10-04T22:28:25.449Z,101440.00
2022-10-04T22:31:28.768Z,101444.94
2022-10-04T22:34:31.113Z,101452.72
2022-10-04T22:37:33.306Z,101452.12
2022-10-04T22:40:36.562Z,101448.78
2022-10-04T22:43:38.840Z,101446.50
2022-10-04T22:46:42.860Z,101454.03
2022-10-04T22:49:46.623Z,101460.22
2022-10-04T22:52:48.846Z,101467.28
2022-10-04T22:55:51.443Z,101458.25
2022-10-04T22:59:00.246Z,101461.66
2022-10-04T23:02:06.234Z,101459.22
2022-10-04T23:05:16.304Z,101452.22
2022-10-04T23:08:18.289Z,101463.94
2022-10-04T23:11:20.525Z,101467.37
2022-10-04T23:14:22.466Z,101466.16
2022-10-04T23:17:25.691Z,101470.81
2022-10-04T23:20:28.578Z,101472.22
2022-10-04T23:23:31.305Z,101485.34
2022-10-04T23:26:38.382Z,101485.25
2022-10-04T23:29:40.631Z,101486.88
2022-10-04T23:32:44.094Z,101478.38
2022-10-04T23:35:47.025Z,101488.25
2022-10-04T23:38:51.818Z,101494.25
2022-10-04T23:41:55.034Z,101500.97
2022-10-04T23:44:57.830Z,101490.97
2022-10-04T23:48:01.238Z,101492.97
2022-10-04T23:51:03.254Z,101501.59
2022-10-04T23:54:05.979Z,101501.37
2022-10-04T23:57:12.504Z,101504.75
